sensor_id;sensor_type;location;lat;lon;timestamp;temperature;humidity
33460;DHT22;19795;53.160;6.612;2023-03-01T05:23:53;-3.30;99.90
33460;DHT22;19795;53.160;6.612;2023-03-01T05:28:55;-3.40;99.90
33460;DHT22;19795;53.160;6.612;2023-03-01T05:31:23;-3.30;99.90
33460;DHT22;19795;53.160;6.612;2023-03-01T05:33:49;-3.30;99.90
33460;DHT22;19795;53.160;6.612;2023-03-01T05:36:15;-3.20;99.90
33460;DHT22;19795;53.160;6.612;2023-03-01T05:38:40;-3.20;99.90
33460;DHT22;19795;53.160;6.612;2023-03-01T05:41:14;-3.10;99.90
33460;DHT22;19795;53.160;6.612;2023-03-01T05:43:40;-3.10;99.90
33460;DHT22;19795;53.160;6.612;2023-03-01T05:46:08;-3.10;99.90
33460;DHT22;19795;53.160;6.612;2023-03-01T05:48:37;-3.20;99.90
33460;DHT22;19795;53.160;6.612;2023-03-01T05:51:04;-3.10;99.90
33460;DHT22;19795;53.160;6.612;2023-03-01T05:53:29;-3.20;99.90
33460;DHT22;19795;53.160;6.612;2023-03-01T05:55:55;-3.30;99.90
33460;DHT22;19795;53.160;6.612;2023-03-01T05:58:21;-3.40;99.90
33460;DHT22;19795;53.160;6.612;2023-03-01T06:00:48;-3.50;99.90
33460;DHT22;19795;53.160;6.612;2023-03-01T06:03:15;-3.00;99.90
33460;DHT22;19795;53.160;6.612;2023-03-01T06:05:41;-3.40;99.90
33460;DHT22;19795;53.160;6.612;2023-03-01T06:08:09;-3.40;99.90
33460;DHT22;19795;53.160;6.612;2023-03-01T06:10:38;-3.00;99.90
33460;DHT22;19795;53.160;6.612;2023-03-01T06:13:05;-3.30;99.90
33460;DHT22;19795;53.160;6.612;2023-03-01T06:15:30;-3.30;99.90
33460;DHT22;19795;53.160;6.612;2023-03-01T06:17:56;-3.30;99.90
33460;DHT22;19795;53.160;6.612;2023-03-01T06:20:25;-3.20;99.90
33460;DHT22;19795;53.160;6.612;2023-03-01T06:22:51;-3.20;99.90
33460;DHT22;19795;53.160;6.612;2023-03-01T06:25:20;-3.30;99.90
33460;DHT22;19795;53.160;6.612;2023-03-01T06:27:47;-3.50;99.90
33460;DHT22;19795;53.160;6.612;2023-03-01T06:30:15;-3.40;99.90
33460;DHT22;19795;53.160;6.612;2023-03-01T06:32:42;-3.40;99.90
33460;DHT22;19795;53.160;6.612;2023-03-01T06:35:12;-3.40;99.90
33460;DHT22;19795;53.160;6.612;2023-03-01T06:37:39;-3.40;99.90
33460;DHT22;19795;53.160;6.612;2023-03-01T06:40:05;-3.40;99.90
33460;DHT22;19795;53.160;6.612;2023-03-01T06:42:37;-3.50;99.90
33460;DHT22;19795;53.160;6.612;2023-03-01T06:45:04;-3.40;99.90
33460;DHT22;19795;53.160;6.612;2023-03-01T06:47:31;-3.30;99.90
33460;DHT22;19795;53.160;6.612;2023-03-01T06:49:58;-3.30;99.90
33460;DHT22;19795;53.160;6.612;2023-03-01T06:52:25;-3.30;99.90
33460;DHT22;19795;53.160;6.612;2023-03-01T06:54:51;-3.20;99.90
33460;DHT22;19795;53.160;6.612;2023-03-01T06:57:17;-3.20;99.90
33460;DHT22;19795;53.160;6.612;2023-03-01T06:59:43;-2.70;99.90
33460;DHT22;19795;53.160;6.612;2023-03-01T07:02:11;-2.60;99.90
33460;DHT22;19795;53.160;6.612;2023-03-01T07:04:38;-3.10;99.90
33460;DHT22;19795;53.160;6.612;2023-03-01T07:07:04;-3.10;99.90
33460;DHT22;19795;53.160;6.612;2023-03-01T07:09:29;-3.00;99.90
33460;DHT22;19795;53.160;6.612;2023-03-01T07:11:56;-2.90;99.90
33460;DHT22;19795;53.160;6.612;2023-03-01T07:14:21;-2.90;99.90
33460;DHT22;19795;53.160;6.612;2023-03-01T07:16:49;-2.80;99.90
33460;DHT22;19795;53.160;6.612;2023-03-01T07:19:15;-2.80;99.90
33460;DHT22;19795;53.160;6.612;2023-03-01T07:21:41;-2.60;99.90
33460;DHT22;19795;53.160;6.612;2023-03-01T07:24:09;-2.60;99.90
33460;DHT22;19795;53.160;6.612;2023-03-01T07:26:35;-2.50;99.90
33460;DHT22;19795;53.160;6.612;2023-03-01T07:29:02;-2.30;99.90
33460;DHT22;19795;53.160;6.612;2023-03-01T07:31:28;-2.20;99.90
33460;DHT22;19795;53.160;6.612;2023-03-01T07:33:54;-1.60;99.90
33460;DHT22;19795;53.160;6.612;2023-03-01T07:36:20;-2.00;99.90
33460;DHT22;19795;53.160;6.612;2023-03-01T07:38:46;-1.80;99.90
33460;DHT22;19795;53.160;6.612;2023-03-01T07:41:12;-1.70;99.90
33460;DHT22;19795;53.160;6.612;2023-03-01T07:43:38;-1.50;99.90
33460;DHT22;19795;53.160;6.612;2023-03-01T07:46:04;-1.50;99.90
33460;DHT22;19795;53.160;6.612;2023-03-01T07:48:30;-1.40;99.90
33460;DHT22;19795;53.160;6.612;2023-03-01T07:51:04;-1.30;99.90
33460;DHT22;19795;53.160;6.612;2023-03-01T07:53:30;-1.10;99.90
33460;DHT22;19795;53.160;6.612;2023-03-01T07:56:10;-1.10;99.90
33460;DHT22;19795;53.160;6.612;2023-03-01T07:58:45;-1.00;99.90
33460;DHT22;19795;53.160;6.612;2023-03-01T08:01:14;-0.40;99.90
33460;DHT22;19795;53.160;6.612;2023-03-01T08:03:39;-0.70;99.90
33460;DHT22;19795;53.160;6.612;2023-03-01T08:06:07;-0.10;99.90
33460;DHT22;19795;53.160;6.612;2023-03-01T08:08:34;-0.40;99.90
33460;DHT22;19795;53.160;6.612;2023-03-01T08:11:01;-0.20;99.90
33460;DHT22;19795;53.160;6.612;2023-03-01T08:13:29;-0.20;99.90
33460;DHT22;19795;53.160;6.612;2023-03-01T08:15:59;-0.10;99.90
33460;DHT22;19795;53.160;6.612;2023-03-01T08:18:25;0.00;99.90
33460;DHT22;19795;53.160;6.612;2023-03-01T08:20:51;0.10;99.90
33460;DHT22;19795;53.160;6.612;2023-03-01T08:23:16;0.20;99.90
33460;DHT22;19795;53.160;6.612;2023-03-01T08:25:42;0.30;99.90
33460;DHT22;19795;53.160;6.612;2023-03-01T08:28:08;0.30;99.90
33460;DHT22;19795;53.160;6.612;2023-03-01T08:30:34;0.40;99.90
33460;DHT22;19795;53.160;6.612;2023-03-01T08:32:59;0.40;99.90
33460;DHT22;19795;53.160;6.612;2023-03-01T08:35:25;0.40;99.90
33460;DHT22;19795;53.160;6.612;2023-03-01T08:37:51;0.50;99.90
33460;DHT22;19795;53.160;6.612;2023-03-01T08:40:16;0.60;99.90
33460;DHT22;19795;53.160;6.612;2023-03-01T08:42:42;0.70;99.90
33460;DHT22;19795;53.160;6.612;2023-03-01T08:45:11;0.80;99.90
33460;DHT22;19795;53.160;6.612;2023-03-01T08:47:37;0.90;99.90
33460;DHT22;19795;53.160;6.612;2023-03-01T08:50:03;1.00;99.90
33460;DHT22;19795;53.160;6.612;2023-03-01T08:52:29;1.10;99.90
33460;DHT22;19795;53.160;6.612;2023-03-01T08:54:56;1.30;99.90
33460;DHT22;19795;53.160;6.612;2023-03-01T08:57:22;1.60;99.90
33460;DHT22;19795;53.160;6.612;2023-03-01T08:59:47;1.50;99.90
33460;DHT22;19795;53.160;6.612;2023-03-01T09:02:15;1.60;99.90
33460;DHT22;19795;53.160;6.612;2023-03-01T09:04:41;1.70;99.90
33460;DHT22;19795;53.160;6.612;2023-03-01T09:07:07;1.80;99.90
33460;DHT22;19795;53.160;6.612;2023-03-01T09:09:33;2.20;99.90
33460;DHT22;19795;53.160;6.612;2023-03-01T09:11:59;2.50;99.90
33460;DHT22;19795;53.160;6.612;2023-03-01T09:14:25;2.70;99.90
33460;DHT22;19795;53.160;6.612;2023-03-01T09:16:51;2.70;99.90
33460;DHT22;19795;53.160;6.612;2023-03-01T09:19:16;2.80;99.90
33460;DHT22;19795;53.160;6.612;2023-03-01T09:21:42;3.00;99.90
33460;DHT22;19795;53.160;6.612;2023-03-01T09:24:18;3.10;99.90
33460;DHT22;19795;53.160;6.612;2023-03-01T09:26:44;3.50;99.90
33460;DHT22;19795;53.160;6.612;2023-03-01T09:29:13;3.70;99.90
33460;DHT22;19795;53.160;6.612;2023-03-01T09:31:40;4.00;99.90
33460;DHT22;19795;53.160;6.612;2023-03-01T09:34:07;4.10;99.90
33460;DHT22;19795;53.160;6.612;2023-03-01T09:36:33;4.10;99.90
33460;DHT22;19795;53.160;6.612;2023-03-01T09:38:59;4.20;99.90
33460;DHT22;19795;53.160;6.612;2023-03-01T09:44:03;4.30;99.90
33460;DHT22;19795;53.160;6.612;2023-03-01T09:46:39;4.50;99.90
33460;DHT22;19795;53.160;6.612;2023-03-01T09:49:12;4.70;99.90
33460;DHT22;19795;53.160;6.612;2023-03-01T09:51:39;4.60;99.90
33460;DHT22;19795;53.160;6.612;2023-03-01T09:54:06;4.90;99.90
33460;DHT22;19795;53.160;6.612;2023-03-01T09:56:36;5.00;99.90
33460;DHT22;19795;53.160;6.612;2023-03-01T10:04:47;5.60;99.90
33460;DHT22;19795;53.160;6.612;2023-03-01T10:07:36;6.00;99.90
33460;DHT22;19795;53.160;6.612;2023-03-01T10:10:10;5.90;99.90
33460;DHT22;19795;53.160;6.612;2023-03-01T10:12:42;5.80;99.90
33460;DHT22;19795;53.160;6.612;2023-03-01T10:17:52;6.20;99.90
33460;DHT22;19795;53.160;6.612;2023-03-01T10:20:26;5.90;99.90
33460;DHT22;19795;53.160;6.612;2023-03-01T10:22:52;6.30;99.90
33460;DHT22;19795;53.160;6.612;2023-03-01T10:28:36;6.20;99.90
33460;DHT22;19795;53.160;6.612;2023-03-01T10:31:05;6.20;99.90
33460;DHT22;19795;53.160;6.612;2023-03-01T10:33:38;6.50;99.90
33460;DHT22;19795;53.160;6.612;2023-03-01T10:36:06;6.50;99.90
33460;DHT22;19795;53.160;6.612;2023-03-01T10:38:48;6.70;99.90
33460;DHT22;19795;53.160;6.612;2023-03-01T10:41:14;6.60;99.90
33460;DHT22;19795;53.160;6.612;2023-03-01T10:43:45;7.00;99.90
33460;DHT22;19795;53.160;6.612;2023-03-01T10:46:29;7.20;99.90
33460;DHT22;19795;53.160;6.612;2023-03-01T10:51:46;7.80;99.90
33460;DHT22;19795;53.160;6.612;2023-03-01T10:54:16;7.40;99.90
33460;DHT22;19795;53.160;6.612;2023-03-01T10:56:54;7.80;99.90
33460;DHT22;19795;53.160;6.612;2023-03-01T10:59:29;7.90;99.90
33460;DHT22;19795;53.160;6.612;2023-03-01T11:04:36;7.10;99.90
33460;DHT22;19795;53.160;6.612;2023-03-01T11:07:02;7.40;99.90
33460;DHT22;19795;53.160;6.612;2023-03-01T11:09:32;7.60;99.90
33460;DHT22;19795;53.160;6.612;2023-03-01T11:12:11;7.40;99.90
33460;DHT22;19795;53.160;6.612;2023-03-01T11:14:39;7.80;99.90
33460;DHT22;19795;53.160;6.612;2023-03-01T11:17:27;7.80;99.90
33460;DHT22;19795;53.160;6.612;2023-03-01T11:22:51;7.70;99.90
33460;DHT22;19795;53.160;6.612;2023-03-01T11:25:20;8.10;99.90
33460;DHT22;19795;53.160;6.612;2023-03-01T11:27:48;7.90;99.90
33460;DHT22;19795;53.160;6.612;2023-03-01T11:30:28;7.90;99.90
33460;DHT22;19795;53.160;6.612;2023-03-01T11:38:36;7.60;99.90
33460;DHT22;19795;53.160;6.612;2023-03-01T11:41:21;7.60;99.90
33460;DHT22;19795;53.160;6.612;2023-03-01T11:43:54;8.50;99.90
33460;DHT22;19795;53.160;6.612;2023-03-01T11:57:11;8.30;99.90
33460;DHT22;19795;53.160;6.612;2023-03-01T12:05:30;8.40;99.90
33460;DHT22;19795;53.160;6.612;2023-03-01T12:08:17;8.50;99.90
33460;DHT22;19795;53.160;6.612;2023-03-01T12:17:07;8.00;99.90
33460;DHT22;19795;53.160;6.612;2023-03-01T12:20:12;7.90;99.90
33460;DHT22;19795;53.160;6.612;2023-03-01T12:28:34;8.00;99.90
33460;DHT22;19795;53.160;6.612;2023-03-01T12:40:15;7.90;99.90
33460;DHT22;19795;53.160;6.612;2023-03-01T12:42:55;8.30;99.90
33460;DHT22;19795;53.160;6.612;2023-03-01T12:51:23;8.50;99.90
33460;DHT22;19795;53.160;6.612;2023-03-01T12:53:51;8.40;99.90
33460;DHT22;19795;53.160;6.612;2023-03-01T12:56:21;8.30;99.90
33460;DHT22;19795;53.160;6.612;2023-03-01T13:06:55;8.60;99.90
33460;DHT22;19795;53.160;6.612;2023-03-01T13:20:20;8.70;99.90
33460;DHT22;19795;53.160;6.612;2023-03-01T13:22:47;8.60;99.90
33460;DHT22;19795;53.160;6.612;2023-03-01T13:25:16;8.30;99.90
33460;DHT22;19795;53.160;6.612;2023-03-01T13:27:42;8.30;99.90
33460;DHT22;19795;53.160;6.612;2023-03-01T13:30:41;8.50;99.90
33460;DHT22;19795;53.160;6.612;2023-03-01T13:35:51;8.50;99.90
33460;DHT22;19795;53.160;6.612;2023-03-01T13:41:27;8.60;99.90
33460;DHT22;19795;53.160;6.612;2023-03-01T13:46:47;8.70;99.90
33460;DHT22;19795;53.160;6.612;2023-03-01T13:49:20;8.70;99.90
33460;DHT22;19795;53.160;6.612;2023-03-01T13:51:47;8.70;99.90
33460;DHT22;19795;53.160;6.612;2023-03-01T13:54:16;9.10;99.90
33460;DHT22;19795;53.160;6.612;2023-03-01T13:56:44;9.00;99.90
33460;DHT22;19795;53.160;6.612;2023-03-01T13:59:20;8.60;99.90
33460;DHT22;19795;53.160;6.612;2023-03-01T14:01:53;8.30;99.90
33460;DHT22;19795;53.160;6.612;2023-03-01T14:06:51;8.40;99.90
33460;DHT22;19795;53.160;6.612;2023-03-01T14:09:18;8.10;99.90
33460;DHT22;19795;53.160;6.612;2023-03-01T14:15:06;7.80;99.90
33460;DHT22;19795;53.160;6.612;2023-03-01T14:20:21;7.80;99.90
33460;DHT22;19795;53.160;6.612;2023-03-01T14:22:49;7.80;99.90
33460;DHT22;19795;53.160;6.612;2023-03-01T14:32:56;8.00;99.90
33460;DHT22;19795;53.160;6.612;2023-03-01T14:35:31;7.80;99.90
33460;DHT22;19795;53.160;6.612;2023-03-01T14:37:57;8.00;99.90
33460;DHT22;19795;53.160;6.612;2023-03-01T14:40:29;8.30;99.90
33460;DHT22;19795;53.160;6.612;2023-03-01T14:42:59;7.90;99.90
33460;DHT22;19795;53.160;6.612;2023-03-01T14:45:27;7.80;99.90
33460;DHT22;19795;53.160;6.612;2023-03-01T14:47:54;7.70;99.90
33460;DHT22;19795;53.160;6.612;2023-03-01T14:50:28;7.70;99.90
33460;DHT22;19795;53.160;6.612;2023-03-01T14:52:59;7.80;99.90
33460;DHT22;19795;53.160;6.612;2023-03-01T14:55:33;7.70;99.90
33460;DHT22;19795;53.160;6.612;2023-03-01T14:58:05;7.60;99.90
33460;DHT22;19795;53.160;6.612;2023-03-01T15:00:33;7.70;99.90
33460;DHT22;19795;53.160;6.612;2023-03-01T15:03:13;7.60;99.90
33460;DHT22;19795;53.160;6.612;2023-03-01T15:05:41;7.50;99.90
33460;DHT22;19795;53.160;6.612;2023-03-01T15:08:08;7.40;99.90
33460;DHT22;19795;53.160;6.612;2023-03-01T15:10:54;7.50;99.90
33460;DHT22;19795;53.160;6.612;2023-03-01T15:13:25;7.40;99.90
33460;DHT22;19795;53.160;6.612;2023-03-01T15:15:53;7.30;99.90
33460;DHT22;19795;53.160;6.612;2023-03-01T15:18:28;7.50;99.90
33460;DHT22;19795;53.160;6.612;2023-03-01T15:20:54;7.70;99.90
33460;DHT22;19795;53.160;6.612;2023-03-01T15:23:28;7.70;99.90
33460;DHT22;19795;53.160;6.612;2023-03-01T15:25:56;7.70;99.90
33460;DHT22;19795;53.160;6.612;2023-03-01T15:31:18;7.80;99.90
33460;DHT22;19795;53.160;6.612;2023-03-01T15:33:44;8.00;99.90
33460;DHT22;19795;53.160;6.612;2023-03-01T15:38:58;7.50;99.90
33460;DHT22;19795;53.160;6.612;2023-03-01T15:41:31;7.70;99.90
33460;DHT22;19795;53.160;6.612;2023-03-01T15:43:59;7.30;99.90
33460;DHT22;19795;53.160;6.612;2023-03-01T15:46:34;7.20;99.90
33460;DHT22;19795;53.160;6.612;2023-03-01T15:52:01;7.40;99.90
33460;DHT22;19795;53.160;6.612;2023-03-01T15:54:28;7.10;99.90
33460;DHT22;19795;53.160;6.612;2023-03-01T15:56:55;7.00;99.90
33460;DHT22;19795;53.160;6.612;2023-03-01T15:59:21;7.00;99.90
33460;DHT22;19795;53.160;6.612;2023-03-01T16:01:48;7.00;99.90
33460;DHT22;19795;53.160;6.612;2023-03-01T16:04:16;6.90;99.90
33460;DHT22;19795;53.160;6.612;2023-03-01T16:06:50;6.80;99.50
33460;DHT22;19795;53.160;6.612;2023-03-01T16:09:23;6.80;99.90
33460;DHT22;19795;53.160;6.612;2023-03-01T16:11:50;6.70;99.90
33460;DHT22;19795;53.160;6.612;2023-03-01T16:14:16;6.70;99.90
33460;DHT22;19795;53.160;6.612;2023-03-01T16:16:43;6.60;99.90
33460;DHT22;19795;53.160;6.612;2023-03-01T16:19:09;6.60;99.90
33460;DHT22;19795;53.160;6.612;2023-03-01T16:21:35;6.50;99.90
33460;DHT22;19795;53.160;6.612;2023-03-01T16:24:01;6.50;99.90
33460;DHT22;19795;53.160;6.612;2023-03-01T16:26:27;6.50;99.90
33460;DHT22;19795;53.160;6.612;2023-03-01T16:28:56;6.40;99.90
33460;DHT22;19795;53.160;6.612;2023-03-01T16:31:23;6.30;99.90
33460;DHT22;19795;53.160;6.612;2023-03-01T16:33:53;6.20;99.90
33460;DHT22;19795;53.160;6.612;2023-03-01T16:36:20;6.20;99.90
33460;DHT22;19795;53.160;6.612;2023-03-01T16:38:49;6.20;99.90
33460;DHT22;19795;53.160;6.612;2023-03-01T16:41:17;6.10;99.90
33460;DHT22;19795;53.160;6.612;2023-03-01T16:43:44;6.00;99.90
33460;DHT22;19795;53.160;6.612;2023-03-01T16:46:20;6.20;99.90
33460;DHT22;19795;53.160;6.612;2023-03-01T16:48:47;5.90;99.90
33460;DHT22;19795;53.160;6.612;2023-03-01T16:51:14;5.90;99.90
33460;DHT22;19795;53.160;6.612;2023-03-01T16:53:40;5.90;99.90
33460;DHT22;19795;53.160;6.612;2023-03-01T16:56:09;5.60;99.90
33460;DHT22;19795;53.160;6.612;2023-03-01T16:58:40;5.50;99.90
33460;DHT22;19795;53.160;6.612;2023-03-01T17:01:20;5.50;99.90
33460;DHT22;19795;53.160;6.612;2023-03-01T17:03:46;5.40;99.90
33460;DHT22;19795;53.160;6.612;2023-03-01T17:06:16;5.60;99.90
33460;DHT22;19795;53.160;6.612;2023-03-01T17:08:42;5.30;99.90
33460;DHT22;19795;53.160;6.612;2023-03-01T17:11:14;5.20;99.90
33460;DHT22;19795;53.160;6.612;2023-03-01T17:13:40;5.20;99.90
33460;DHT22;19795;53.160;6.612;2023-03-01T17:16:12;5.10;99.90
33460;DHT22;19795;53.160;6.612;2023-03-01T17:18:38;5.00;99.90
33460;DHT22;19795;53.160;6.612;2023-03-01T17:21:05;5.00;99.90
33460;DHT22;19795;53.160;6.612;2023-03-01T17:23:32;5.00;99.90
33460;DHT22;19795;53.160;6.612;2023-03-01T17:25:58;5.00;99.90
33460;DHT22;19795;53.160;6.612;2023-03-01T17:28:27;5.20;99.90
33460;DHT22;19795;53.160;6.612;2023-03-01T17:30:54;4.90;99.90
33460;DHT22;19795;53.160;6.612;2023-03-01T17:33:21;4.80;99.90
33460;DHT22;19795;53.160;6.612;2023-03-01T17:35:47;4.80;99.90
33460;DHT22;19795;53.160;6.612;2023-03-01T17:38:13;4.80;99.90
33460;DHT22;19795;53.160;6.612;2023-03-01T17:40:40;4.80;99.90
33460;DHT22;19795;53.160;6.612;2023-03-01T17:43:10;4.80;99.90
33460;DHT22;19795;53.160;6.612;2023-03-01T17:45:36;4.80;99.90
33460;DHT22;19795;53.160;6.612;2023-03-01T17:48:03;4.80;99.90
33460;DHT22;19795;53.160;6.612;2023-03-01T17:50:29;4.80;99.90
33460;DHT22;19795;53.160;6.612;2023-03-01T17:52:54;4.70;99.90
33460;DHT22;19795;53.160;6.612;2023-03-01T17:55:20;4.60;99.90
33460;DHT22;19795;53.160;6.612;2023-03-01T17:57:46;5.10;99.90
33460;DHT22;19795;53.160;6.612;2023-03-01T18:00:13;4.70;99.90
33460;DHT22;19795;53.160;6.612;2023-03-01T18:02:39;4.50;99.90
33460;DHT22;19795;53.160;6.612;2023-03-01T18:05:06;4.40;99.90
33460;DHT22;19795;53.160;6.612;2023-03-01T18:07:31;4.40;99.90
33460;DHT22;19795;53.160;6.612;2023-03-01T18:09:57;4.30;99.90
33460;DHT22;19795;53.160;6.612;2023-03-01T18:12:23;4.30;99.90
33460;DHT22;19795;53.160;6.612;2023-03-01T18:14:49;4.10;99.90
33460;DHT22;19795;53.160;6.612;2023-03-01T18:17:23;4.10;99.90
33460;DHT22;19795;53.160;6.612;2023-03-01T18:19:48;4.00;99.90
33460;DHT22;19795;53.160;6.612;2023-03-01T18:22:14;3.90;99.90
33460;DHT22;19795;53.160;6.612;2023-03-01T18:24:40;3.80;99.90
33460;DHT22;19795;53.160;6.612;2023-03-01T18:27:07;4.20;99.90
33460;DHT22;19795;53.160;6.612;2023-03-01T18:29:33;3.80;99.90
33460;DHT22;19795;53.160;6.612;2023-03-01T18:32:00;3.70;99.90
33460;DHT22;19795;53.160;6.612;2023-03-01T18:34:26;3.70;99.90
33460;DHT22;19795;53.160;6.612;2023-03-01T18:36:53;3.60;99.90
33460;DHT22;19795;53.160;6.612;2023-03-01T18:39:21;3.60;99.90
33460;DHT22;19795;53.160;6.612;2023-03-01T18:41:47;3.50;99.90
33460;DHT22;19795;53.160;6.612;2023-03-01T18:44:13;3.40;99.90
33460;DHT22;19795;53.160;6.612;2023-03-01T18:46:38;3.40;99.90
33460;DHT22;19795;53.160;6.612;2023-03-01T18:49:06;3.30;99.90
33460;DHT22;19795;53.160;6.612;2023-03-01T18:51:32;3.20;99.90
33460;DHT22;19795;53.160;6.612;2023-03-01T18:54:00;3.10;99.90
33460;DHT22;19795;53.160;6.612;2023-03-01T18:56:28;3.00;99.90
33460;DHT22;19795;53.160;6.612;2023-03-01T18:58:54;2.90;99.90
33460;DHT22;19795;53.160;6.612;2023-03-01T19:01:23;2.90;99.90
33460;DHT22;19795;53.160;6.612;2023-03-01T19:03:49;2.80;99.90
33460;DHT22;19795;53.160;6.612;2023-03-01T19:06:16;3.10;99.90
33460;DHT22;19795;53.160;6.612;2023-03-01T19:08:42;2.60;99.90
33460;DHT22;19795;53.160;6.612;2023-03-01T19:11:09;2.50;99.90
33460;DHT22;19795;53.160;6.612;2023-03-01T19:13:37;2.50;99.90
33460;DHT22;19795;53.160;6.612;2023-03-01T19:18:39;2.50;99.90
33460;DHT22;19795;53.160;6.612;2023-03-01T19:21:06;2.60;99.90
33460;DHT22;19795;53.160;6.612;2023-03-01T19:23:33;2.50;99.90
33460;DHT22;19795;53.160;6.612;2023-03-01T19:26:04;2.50;99.90
33460;DHT22;19795;53.160;6.612;2023-03-01T19:28:31;2.50;99.90
33460;DHT22;19795;53.160;6.612;2023-03-01T19:31:03;2.50;99.90
33460;DHT22;19795;53.160;6.612;2023-03-01T19:33:30;2.50;99.90
33460;DHT22;19795;53.160;6.612;2023-03-01T19:35:57;3.10;99.90
33460;DHT22;19795;53.160;6.612;2023-03-01T19:38:24;2.70;99.90
33460;DHT22;19795;53.160;6.612;2023-03-01T19:40:50;2.70;99.90
33460;DHT22;19795;53.160;6.612;2023-03-01T19:43:16;2.70;99.90
33460;DHT22;19795;53.160;6.612;2023-03-01T19:45:42;2.70;99.90
33460;DHT22;19795;53.160;6.612;2023-03-01T19:48:07;2.80;99.90
33460;DHT22;19795;53.160;6.612;2023-03-01T19:50:33;2.80;99.90
33460;DHT22;19795;53.160;6.612;2023-03-01T19:52:59;3.00;99.90
33460;DHT22;19795;53.160;6.612;2023-03-01T19:55:25;2.80;99.90
33460;DHT22;19795;53.160;6.612;2023-03-01T19:57:50;2.90;99.90
33460;DHT22;19795;53.160;6.612;2023-03-01T20:00:16;2.90;99.90
33460;DHT22;19795;53.160;6.612;2023-03-01T20:02:43;2.90;99.90
33460;DHT22;19795;53.160;6.612;2023-03-01T20:05:10;2.90;99.90
33460;DHT22;19795;53.160;6.612;2023-03-01T20:07:35;3.40;99.90
33460;DHT22;19795;53.160;6.612;2023-03-01T20:10:01;3.00;99.90
33460;DHT22;19795;53.160;6.612;2023-03-01T20:12:27;3.00;99.90
33460;DHT22;19795;53.160;6.612;2023-03-01T20:14:52;3.10;99.90
33460;DHT22;19795;53.160;6.612;2023-03-01T20:17:22;3.10;99.90
33460;DHT22;19795;53.160;6.612;2023-03-01T20:19:48;3.10;99.90
33460;DHT22;19795;53.160;6.612;2023-03-01T20:22:14;3.20;99.90
33460;DHT22;19795;53.160;6.612;2023-03-01T20:24:40;3.10;99.90
33460;DHT22;19795;53.160;6.612;2023-03-01T20:27:07;3.10;99.90
33460;DHT22;19795;53.160;6.612;2023-03-01T20:29:32;3.00;99.90
33460;DHT22;19795;53.160;6.612;2023-03-01T20:31:58;3.00;99.90
33460;DHT22;19795;53.160;6.612;2023-03-01T20:34:24;3.10;99.90
33460;DHT22;19795;53.160;6.612;2023-03-01T20:36:50;3.10;99.90
33460;DHT22;19795;53.160;6.612;2023-03-01T20:39:15;3.10;99.90
33460;DHT22;19795;53.160;6.612;2023-03-01T20:41:41;3.00;99.90
33460;DHT22;19795;53.160;6.612;2023-03-01T20:44:07;3.00;99.90
33460;DHT22;19795;53.160;6.612;2023-03-01T20:46:34;3.00;99.90
33460;DHT22;19795;53.160;6.612;2023-03-01T20:49:00;3.10;99.90
33460;DHT22;19795;53.160;6.612;2023-03-01T20:51:27;3.20;99.90
33460;DHT22;19795;53.160;6.612;2023-03-01T20:53:53;3.10;99.90
33460;DHT22;19795;53.160;6.612;2023-03-01T20:56:20;3.10;99.90
33460;DHT22;19795;53.160;6.612;2023-03-01T20:58:46;3.30;99.90
33460;DHT22;19795;53.160;6.612;2023-03-01T21:01:17;3.10;99.90
33460;DHT22;19795;53.160;6.612;2023-03-01T21:03:43;3.10;99.90
33460;DHT22;19795;53.160;6.612;2023-03-01T21:06:09;3.00;99.90
33460;DHT22;19795;53.160;6.612;2023-03-01T21:08:35;3.00;99.90
33460;DHT22;19795;53.160;6.612;2023-03-01T21:11:02;3.00;99.90
33460;DHT22;19795;53.160;6.612;2023-03-01T21:13:29;3.00;99.90
33460;DHT22;19795;53.160;6.612;2023-03-01T21:15:58;3.00;99.90
33460;DHT22;19795;53.160;6.612;2023-03-01T21:18:25;3.10;99.90
33460;DHT22;19795;53.160;6.612;2023-03-01T21:21:01;3.00;99.90
33460;DHT22;19795;53.160;6.612;2023-03-01T21:23:29;3.00;99.90
33460;DHT22;19795;53.160;6.612;2023-03-01T21:26:16;3.00;99.90
33460;DHT22;19795;53.160;6.612;2023-03-01T21:28:43;3.00;99.90
33460;DHT22;19795;53.160;6.612;2023-03-01T21:33:44;3.10;99.90
33460;DHT22;19795;53.160;6.612;2023-03-01T21:36:10;3.10;99.90
33460;DHT22;19795;53.160;6.612;2023-03-01T21:38:39;3.10;99.90
33460;DHT22;19795;53.160;6.612;2023-03-01T21:41:10;3.10;99.90
33460;DHT22;19795;53.160;6.612;2023-03-01T21:43:37;3.20;99.90
33460;DHT22;19795;53.160;6.612;2023-03-01T21:46:05;3.10;99.90
33460;DHT22;19795;53.160;6.612;2023-03-01T21:48:32;3.10;99.90
33460;DHT22;19795;53.160;6.612;2023-03-01T21:50:59;3.00;99.90
33460;DHT22;19795;53.160;6.612;2023-03-01T21:53:28;3.00;99.90
33460;DHT22;19795;53.160;6.612;2023-03-01T21:55:55;3.10;99.90
33460;DHT22;19795;53.160;6.612;2023-03-01T21:58:21;3.00;99.90
33460;DHT22;19795;53.160;6.612;2023-03-01T22:00:48;3.00;99.90
33460;DHT22;19795;53.160;6.612;2023-03-01T22:03:14;3.00;99.90
33460;DHT22;19795;53.160;6.612;2023-03-01T22:05:40;3.00;99.90
33460;DHT22;19795;53.160;6.612;2023-03-01T22:08:06;3.00;99.90
33460;DHT22;19795;53.160;6.612;2023-03-01T22:10:32;2.90;99.90
33460;DHT22;19795;53.160;6.612;2023-03-01T22:12:58;2.90;99.90
33460;DHT22;19795;53.160;6.612;2023-03-01T22:15:26;2.80;99.90
33460;DHT22;19795;53.160;6.612;2023-03-01T22:17:53;3.00;99.90
33460;DHT22;19795;53.160;6.612;2023-03-01T22:20:19;2.80;99.90
33460;DHT22;19795;53.160;6.612;2023-03-01T22:22:45;2.80;99.90
33460;DHT22;19795;53.160;6.612;2023-03-01T22:25:11;2.80;99.90
33460;DHT22;19795;53.160;6.612;2023-03-01T22:27:37;2.80;99.90
33460;DHT22;19795;53.160;6.612;2023-03-01T22:30:05;2.80;99.90
33460;DHT22;19795;53.160;6.612;2023-03-01T22:32:31;2.80;99.90
